Date,TemperatureHighF,TemperatureAvgF,TemperatureLowF,DewpointHighF,DewpointAvgF,DewpointLowF,HumidityHigh,HumidityAvg,HumidityLow,PressureMaxIn,PressureMinIn,WindSpeedMaxMPH,WindSpeedAvgMPH,GustSpeedMaxMPH,PrecipitationSumIn
2013-1-1,56,46,37,55,43,32,96,90,79,30.22,29.95,12,3,16,0.11
2013-1-2,43,35,24,32,28,23,94,75,56,30.34,30.21,11,2,15,0.00
2013-1-3,41,36,24,32,28,22,95,73,59,30.48,30.33,10,2,14,0.00
2013-1-4,38,36,32,36,33,29,95,92,69,30.52,30.39,6,1,11,0.19
2013-1-5,60,42,30,43,37,29,96,84,47,30.40,30.22,6,1,8,0.01
2013-1-6,56,37,25,31,27,24,97,72,31,30.43,30.30,11,2,16,0.00
2013-1-7,52,37,24,39,30,22,97,79,52,30.35,30.06,7,1,10,0.01
2013-1-8,56,49,44,55,48,41,97,96,88,30.06,29.84,9,2,15,0.98
2013-1-9,55,53,49,54,52,48,98,95,92,30.01,29.84,19,5,29,1.03
2013-1-10,64,49,35,46,42,34,98,80,46,30.03,29.96,11,2,16,0.00
2013-1-11,69,54,34,61,51,33,98,88,68,30.01,29.80,11,3,19,0.00
2013-1-12,70,62,44,65,57,33,97,85,59,29.84,29.62,13,4,22,0.02
2013-1-13,48,39,32,33,27,23,73,63,46,30.17,29.86,16,6,23,0.00
2013-1-14,46,36,27,29,25,19,74,65,50,30.25,30.11,10,3,15,0.00
2013-1-15,37,34,30,32,28,18,93,81,60,30.28,30.11,16,5,20,0.00
2013-1-16,50,35,22,22,18,14,83,55,25,30.37,30.22,14,2,22,0.00
2013-1-17,62,44,26,36,30,22,91,62,33,30.50,30.34,9,3,18,0.00
2013-1-18,63,41,24,37,30,23,97,70,33,30.52,30.32,8,1,12,0.00
2013-1-19,65,43,28,47,35,26,97,78,43,30.33,30.16,10,2,16,0.00
2013-1-20,71,48,30,50,38,29,97,74,26,30.26,30.09,8,1,10,0.00
2013-1-21,71,51,34,55,43,33,98,79,45,30.23,30.14,6,1,9,0.00
2013-1-22,69,53,36,51,44,35,97,75,47,30.28,30.18,12,2,15,0.00
2013-1-23,72,54,38,57,49,37,97,83,56,30.31,30.18,13,2,16,0.00
2013-1-24,77,59,43,62,53,42,98,83,47,30.23,30.08,10,2,112,0.00
2013-1-25,76,62,48,61,56,46,97,84,57,30.12,29.99,8,2,219,0.00
2013-1-26,65,56,49,59,53,47,97,91,82,30.12,30.02,6,1,61,0.00
2013-1-27,75,66,58,64,60,56,94,83,61,30.06,29.90,16,6,23,0.00
2013-1-28,73,68,65,65,64,63,94,87,73,29.97,29.81,18,6,25,0.00
2013-1-29,79,65,52,65,53,19,95,69,28,29.81,29.46,18,6,28,0.01
2013-1-30,54,45,27,26,18,10,72,36,18,30.23,29.74,21,6,68,0.00
2013-1-31,66,42,22,26,20,17,86,51,17,30.33,30.19,11,2,184,0.00
2013-2-1,68,50,30,45,34,24,90,57,30,30.34,30.16,15,3,21,0.00
2013-2-2,74,56,37,54,45,35,97,69,37,30.27,30.14,7,2,13,0.00
2013-2-3,68,55,38,51,41,30,87,61,30,30.30,29.97,10,2,15,0.00
2013-2-4,73,59,45,58,52,43,94,80,51,29.97,29.77,10,3,18,0.02
2013-2-5,81,57,38,49,41,35,96,62,19,29.97,29.85,7,1,196,0.00
2013-2-6,73,61,51,59,55,47,94,81,61,29.94,29.79,8,2,12,0.01
2013-2-7,81,66,57,62,51,34,97,66,24,30.04,29.83,12,3,20,0.01
2013-2-8,68,54,44,44,35,28,75,53,24,30.18,30.02,13,4,24,0.00
2013-2-9,65,55,43,64,52,32,98,89,59,30.06,29.76,10,4,192,0.00
2013-2-10,66,59,51,65,39,22,97,54,23,29.97,29.73,12,3,18,0.07
2013-2-11,58,52,48,46,42,33,93,72,45,30.04,29.92,10,2,230,0.12
2013-2-12,70,56,42,54,40,20,97,64,19,30.05,29.82,14,4,164,0.02
2013-2-13,61,44,30,34,28,20,84,59,22,30.14,30.01,11,4,161,0.00
2013-2-14,69,45,25,39,31,24,96,64,25,30.14,30.00,12,2,16,0.00
2013-2-15,57,44,31,39,34,24,96,69,48,30.39,30.08,13,4,153,0.00
2013-2-16,66,44,24,28,24,20,86,52,20,30.46,30.22,10,1,47,0.00
2013-2-17,68,49,25,51,35,22,89,62,35,30.22,29.95,16,5,177,0.00
2013-2-18,79,64,54,57,42,12,85,53,8,30.03,29.81,16,6,26,0.00
2013-2-19,66,53,34,31,28,23,79,41,20,30.21,30.01,14,3,118,0.00
2013-2-20,64,55,50,63,47,22,98,79,28,30.07,29.60,14,5,23,0.03
2013-2-21,74,62,44,63,38,17,94,51,13,29.82,29.55,15,5,24,0.01
2013-2-22,63,48,36,37,32,23,83,56,33,30.01,29.82,13,3,17,0.00
2013-2-23,71,50,30,38,28,21,85,49,16,30.05,29.85,8,1,17,0.00
2013-2-24,70,56,34,57,46,31,92,71,48,29.89,29.55,19,4,22,0.00
2013-2-25,62,52,42,59,32,18,91,51,23,29.86,29.53,25,8,39,0.00
2013-2-26,69,49,34,27,24,19,68,43,15,29.96,29.81,11,3,23,0.00
2013-2-27,59,47,31,33,24,18,69,44,26,30.24,29.86,21,5,26,0.00
2013-2-28,58,44,30,29,23,19,65,47,22,30.33,30.19,14,3,192,0.00
2013-3-1,68,47,23,29,18,6,81,41,10,30.30,30.14,15,3,26,0.00
2013-3-2,62,47,34,29,26,23,73,46,26,30.41,30.25,12,4,22,0.00
2013-3-3,74,53,28,40,29,24,84,47,19,30.25,29.92,16,4,22,0.00
2013-3-4,87,64,48,49,40,22,86,48,11,29.91,29.67,10,3,15,0.00
2013-3-5,65,50,29,41,23,9,67,39,14,30.36,29.74,27,8,39,0.00
2013-3-6,64,44,25,21,14,7,63,36,11,30.44,30.21,9,2,13,0.00
2013-3-7,70,54,33,54,41,18,85,63,43,30.21,30.07,12,4,19,0.00
2013-3-8,65,61,56,61,58,54,97,92,85,30.07,29.93,14,5,19,0.00
2013-3-9,74,64,58,65,62,56,97,91,73,29.95,29.57,13,5,28,0.39
2013-3-10,60,54,38,56,37,29,94,56,33,30.11,29.68,20,7,30,0.09
2013-3-11,68,45,29,32,26,22,90,55,20,30.19,30.00,13,2,219,0.00
2013-3-12,77,53,28,36,30,24,94,52,14,30.22,30.07,10,2,91,0.00
2013-3-13,75,55,35,45,37,32,91,56,26,30.39,30.21,10,2,133,0.00
2013-3-14,76,58,36,52,44,33,96,62,30,30.34,30.18,17,4,18,0.00
2013-3-15,78,64,49,54,50,43,93,64,35,30.21,29.95,16,5,22,0.00
2013-3-16,82,67,54,60,53,49,91,65,33,29.95,29.68,16,5,21,0.00
2013-3-17,85,70,60,60,58,53,86,68,38,29.75,29.58,11,4,16,0.00
2013-3-18,85,71,54,63,46,28,95,53,13,29.87,29.65,14,4,21,0.00
2013-3-19,83,63,39,62,51,37,93,67,40,29.95,29.77,14,3,18,0.00
2013-3-20,70,59,51,54,42,32,90,59,25,30.19,29.96,16,5,21,0.00
2013-3-21,71,62,53,58,50,31,86,65,37,29.98,29.58,16,6,23,0.00
2013-3-22,87,68,60,63,58,53,95,75,41,29.67,29.56,10,4,17,0.00
2013-3-23,88,67,51,61,50,32,90,62,15,29.72,29.52,8,3,17,0.00
2013-3-24,67,48,33,55,27,17,87,47,22,30.14,29.66,18,8,37,0.00
2013-3-25,57,42,27,22,16,6,77,41,16,30.38,30.14,9,2,14,0.00
2013-3-26,65,45,23,24,19,17,78,42,17,30.49,30.27,9,2,13,0.00
2013-3-27,65,52,41,47,36,19,76,56,33,30.30,30.12,15,5,21,0.00
2013-3-28,67,60,52,58,54,46,86,81,71,30.16,30.08,14,5,18,0.00
2013-3-29,74,65,55,58,56,53,95,75,56,30.12,29.99,17,6,21,0.00
2013-3-30,82,71,61,62,60,58,92,69,46,30.05,29.84,10,4,14,0.03
2013-3-31,80,66,54,64,60,53,96,82,56,29.92,29.80,11,2,20,0.38
2013-4-1,82,67,52,64,59,51,97,78,48,30.02,29.84,11,2,77,0.01
2013-4-2,72,64,49,64,61,48,95,87,72,29.93,29.77,9,3,26,0.53
2013-4-3,54,48,45,52,47,43,96,93,90,30.14,29.82,13,5,19,0.48
2013-4-4,64,50,42,45,42,39,92,77,48,30.23,30.09,13,5,22,0.00
2013-4-5,75,53,34,50,42,33,97,72,35,30.26,30.03,10,2,11,0.00
2013-4-6,77,63,48,59,52,44,93,70,51,30.03,29.81,15,5,141,0.00
2013-4-7,81,68,57,65,61,55,94,77,55,29.85,29.69,14,5,18,0.00
2013-4-8,74,67,63,67,63,60,94,87,76,29.76,29.59,16,6,19,0.00
2013-4-9,86,73,66,69,66,64,95,80,50,29.64,29.49,15,6,21,0.00
2013-4-10,71,55,41,67,48,37,90,77,59,29.92,29.56,17,7,182,0.00
2013-4-11,73,56,44,41,36,29,75,50,26,29.95,29.74,12,3,19,0.00
2013-4-12,80,60,36,48,42,35,96,56,26,29.97,29.81,10,2,15,0.00
2013-4-13,76,61,42,55,47,38,90,62,37,29.92,29.72,15,2,227,0.00
2013-4-14,89,69,56,64,57,51,95,70,29,29.79,29.55,11,3,64,0.00
2013-4-15,89,75,63,65,62,56,94,68,38,29.71,29.62,10,4,153,0.00
2013-4-16,87,74,65,68,65,62,90,73,49,29.79,29.70,16,6,20,0.00
2013-4-17,79,73,70,70,69,67,95,87,72,29.79,29.58,16,6,22,0.00
2013-4-18,71,60,50,70,49,33,96,69,40,30.05,29.57,19,8,32,0.06
2013-4-19,67,52,38,33,26,17,73,41,19,30.30,30.05,19,5,214,0.00
2013-4-20,71,53,30,45,31,26,89,50,22,30.20,29.95,16,4,21,0.00
2013-4-21,78,62,52,56,51,45,86,68,44,30.09,29.94,13,4,20,0.00
2013-4-22,81,67,58,60,57,54,89,71,46,30.04,29.81,14,6,18,0.00
2013-4-23,72,63,47,64,55,39,90,77,59,30.05,29.77,16,6,71,0.00
2013-4-24,58,49,41,39,34,31,82,59,38,30.25,30.06,17,7,23,0.00
2013-4-25,67,58,53,46,41,37,63,54,39,30.30,30.15,8,3,249,0.00
2013-4-26,76,66,56,66,60,45,97,82,59,30.15,29.98,10,4,18,0.00
2013-4-27,83,71,64,67,65,61,94,83,51,30.03,29.86,19,3,236,0.13
2013-4-28,84,70,58,64,60,57,97,75,42,29.96,29.78,10,2,167,0.13
2013-4-29,83,69,62,64,61,58,95,78,44,29.87,29.70,9,2,112,0.01
2013-4-30,83,69,57,65,61,55,97,78,48,29.77,29.65,9,2,13,0.00
2013-5-1,85,73,66,67,65,63,91,76,52,29.87,29.72,12,4,216,0.00
2013-5-2,72,50,44,67,45,35,97,82,68,30.33,29.86,21,10,186,1.36
2013-5-3,64,51,39,38,31,26,87,52,24,30.36,30.08,17,6,31,0.00
2013-5-4,82,57,33,44,34,27,95,53,14,30.10,29.86,8,2,85,0.00
2013-5-5,76,58,41,46,41,37,88,58,28,30.11,29.98,12,3,148,0.00
2013-5-6,75,59,42,53,47,41,95,69,40,30.12,29.97,8,1,175,0.00
2013-5-7,83,64,44,56,49,43,96,64,31,30.05,29.89,12,2,249,0.00
2013-5-8,78,68,61,65,60,53,90,77,60,29.94,29.81,11,3,209,0.00
2013-5-9,76,68,60,70,65,59,95,92,83,29.87,29.78,8,3,121,0.23
2013-5-10,81,65,57,65,60,56,98,84,51,29.99,29.81,16,4,236,1.22
2013-5-11,76,65,59,59,56,50,96,76,44,30.13,29.96,26,3,200,0.00
2013-5-12,76,63,50,56,51,44,94,69,34,30.23,30.08,13,2,229,0.00
2013-5-13,83,65,43,55,49,42,96,62,30,30.23,30.10,10,2,103,0.00
2013-5-14,84,69,50,66,57,49,96,70,33,30.18,29.93,13,4,70,0.00
2013-5-15,85,73,62,70,66,60,96,82,52,30.03,29.73,14,5,18,0.83
2013-5-16,91,78,69,73,69,66,94,77,44,29.77,29.63,11,5,28,0.00
2013-5-17,94,81,70,73,71,68,93,74,47,29.80,29.70,10,4,16,0.00
2013-5-18,91,78,67,71,68,65,96,72,48,29.83,29.71,14,5,22,0.00
2013-5-19,89,78,68,72,68,65,92,73,55,29.77,29.63,13,5,19,0.00
2013-5-20,90,78,69,72,69,67,92,74,50,29.75,29.59,13,6,19,0.00
2013-5-21,84,75,68,72,68,59,92,78,64,29.81,29.63,13,4,41,0.00
2013-5-22,90,76,54,68,59,50,94,60,32,29.87,29.73,6,2,55,0.00
2013-5-23,88,77,68,71,69,67,95,78,55,29.95,29.78,12,3,15,0.00
2013-5-24,77,70,65,71,66,62,96,90,80,30.06,29.93,7,2,236,0.37
2013-5-25,77,71,66,70,67,64,96,89,73,30.08,29.95,9,3,139,0.28
2013-5-26,80,72,66,72,68,64,95,89,75,30.04,29.91,9,3,196,0.03
2013-5-27,86,74,67,72,69,66,95,86,62,29.96,29.77,12,4,17,0.01
2013-5-28,85,76,69,70,68,65,89,78,59,29.83,29.67,15,6,26,0.00
2013-5-29,82,75,71,72,70,68,90,83,70,29.80,29.59,21,8,30,0.00
2013-5-30,85,76,71,73,70,68,95,82,62,29.76,29.68,16,6,22,0.00
2013-5-31,90,79,71,76,72,68,91,80,62,29.80,29.67,10,5,18,0.00
2013-6-1,93,81,73,76,72,69,90,75,54,29.83,29.70,15,4,22,0.00
2013-6-2,86,75,62,73,63,54,92,70,35,30.00,29.81,11,2,18,0.00
2013-6-3,90,74,56,68,62,55,96,71,42,29.94,29.78,8,2,13,0.00
2013-6-4,91,77,60,67,63,59,97,67,41,29.84,29.73,9,3,81,0.00
2013-6-5,91,78,68,70,66,62,92,68,43,29.80,29.68,13,3,196,0.00
2013-6-6,94,78,63,68,64,62,95,67,39,29.88,29.70,10,2,185,0.00
2013-6-7,79,70,58,64,62,56,91,75,48,29.97,29.82,8,2,231,0.00
2013-6-8,86,72,54,70,63,53,97,73,56,29.89,29.73,13,1,80,0.00
2013-6-9,93,77,67,71,68,64,92,74,45,29.90,29.77,9,1,39,0.00
2013-6-10,93,77,61,72,66,60,97,73,41,29.94,29.85,4,0,8,0.00
2013-6-11,92,78,68,71,68,65,95,74,45,29.96,29.89,5,1,99,0.00
2013-6-12,91,78,70,71,69,66,94,77,44,29.98,29.87,10,4,19,0.00
2013-6-13,92,77,71,73,70,68,95,82,51,30.00,29.88,13,2,22,0.03
2013-6-14,82,74,69,73,71,67,96,88,71,29.93,29.86,6,1,10,0.04
2013-6-15,86,77,71,73,71,67,96,82,58,29.94,29.84,7,2,12,0.00
2013-6-16,91,81,70,73,70,67,92,72,49,29.95,29.83,13,4,17,0.00
2013-6-17,93,82,73,73,70,68,91,71,47,29.93,29.77,13,3,15,0.00
2013-6-18,94,80,68,72,68,64,94,69,39,29.93,29.80,8,2,11,0.07
2013-6-19,93,81,68,71,67,63,94,66,38,29.91,29.83,13,3,15,0.00
2013-6-20,92,81,71,71,68,65,88,66,42,29.97,29.86,14,5,20,0.00
2013-6-21,92,82,73,71,67,62,88,65,40,29.99,29.88,14,6,21,0.00
2013-6-22,92,82,72,70,67,63,89,64,39,29.95,29.81,15,6,20,0.00
2013-6-23,91,81,71,69,66,62,89,64,39,29.89,29.80,15,5,21,0.00
2013-6-24,94,81,72,70,68,66,88,67,41,29.93,29.80,14,6,22,0.00
2013-6-25,95,83,74,70,68,63,86,63,39,29.91,29.78,20,6,21,0.00
2013-6-26,95,83,74,72,69,66,87,66,44,29.88,29.80,13,5,19,0.00
2013-6-27,98,83,70,71,64,53,88,57,22,29.95,29.84,9,3,86,0.00
2013-6-28,103,83,63,71,63,57,91,56,25,29.94,29.75,18,2,148,0.00
2013-6-29,104,87,66,66,61,56,80,47,21,29.82,29.67,10,1,209,0.00
2013-6-30,87,75,67,71,66,61,96,76,49,29.92,29.74,18,1,236,0.97
2013-7-1,83,73,60,66,59,51,95,65,36,29.98,29.84,13,2,30,0.00
2013-7-2,88,72,55,60,53,45,94,59,23,30.06,29.92,9,2,144,0.00
2013-7-3,92,74,54,59,50,42,88,51,19,30.00,29.85,7,0,162,0.00
2013-7-4,92,74,56,65,56,51,92,59,26,29.94,29.83,2,0,129,0.00
2013-7-5,93,78,58,68,60,56,93,59,29,29.93,29.78,8,0,146,0.00
2013-7-6,92,78,62,70,63,59,93,63,34,29.88,29.76,12,1,34,0.00
2013-7-7,95,80,65,72,68,63,94,68,40,29.91,29.81,5,0,31,0.00
2013-7-8,82,76,72,73,71,69,94,84,68,30.05,29.90,9,2,18,0.35
2013-7-9,93,81,71,72,69,66,96,71,44,30.08,29.94,9,3,14,0.00
2013-7-10,96,83,68,72,68,61,94,65,32,30.03,29.86,8,2,13,0.00
2013-7-11,96,82,70,72,67,62,93,64,33,29.94,29.81,11,2,129,0.00
2013-7-12,97,81,64,72,63,55,92,61,26,29.90,29.82,3,0,94,0.00
2013-7-13,99,82,64,72,62,58,89,54,27,29.92,29.78,2,0,2,0.00
2013-7-14,98,80,68,68,64,59,82,61,28,29.84,29.75,12,1,13,0.00
2013-7-15,75,72,68,72,69,65,94,88,81,29.96,29.79,7,2,23,0.58
2013-7-16,83,74,68,74,70,67,96,88,65,30.07,29.94,10,2,18,0.55
2013-7-17,84,73,68,72,69,67,97,87,64,30.11,30.03,8,1,198,0.06
2013-7-18,90,76,68,72,68,66,96,78,48,30.11,29.93,9,2,12,0.00
2013-7-19,93,79,65,73,66,62,97,69,38,30.02,29.84,7,1,11,0.00
2013-7-20,93,79,65,71,67,63,96,69,41,29.93,29.77,9,2,64,0.00
2013-7-21,93,81,70,73,70,66,94,71,49,29.88,29.79,9,2,131,0.00
2013-7-22,93,83,75,73,71,67,88,69,44,29.91,29.80,15,5,20,0.00
2013-7-23,96,84,76,74,68,61,85,62,31,29.92,29.79,16,5,22,0.00
2013-7-24,95,83,72,73,70,64,92,67,37,29.93,29.79,9,2,13,0.00
2013-7-25,97,84,70,72,66,58,91,60,28,29.94,29.87,9,2,12,0.00
2013-7-26,98,84,71,73,68,65,91,62,34,29.94,29.79,10,1,12,0.00
2013-7-27,88,80,70,74,69,64,93,69,47,29.90,29.80,8,1,12,0.08
2013-7-28,95,80,64,74,67,62,95,69,42,29.89,29.76,2,0,7,0.00
2013-7-29,97,84,76,73,68,60,86,62,29,29.92,29.84,8,0,13,0.00
2013-7-30,98,85,74,71,68,60,85,60,29,30.00,29.87,13,3,23,0.00
2013-7-31,102,85,71,70,63,56,87,53,24,30.01,29.85,8,2,11,0.00
2013-8-1,100,84,69,71,64,56,84,54,32,29.96,29.81,8,0,9,0.00
2013-8-2,99,83,66,68,62,55,83,53,24,29.90,29.80,6,1,13,0.00
2013-8-3,98,85,72,71,65,58,88,55,27,29.93,29.84,10,3,17,0.00
2013-8-4,97,84,73,72,69,66,89,63,37,29.98,29.84,11,3,16,0.00
2013-8-5,99,84,69,72,66,62,86,58,30,29.95,29.79,15,2,15,0.00
2013-8-6,100,86,70,72,67,60,92,59,28,29.87,29.72,11,3,17,0.00
2013-8-7,102,86,73,73,67,56,90,57,25,29.84,29.70,10,2,13,0.00
2013-8-8,100,85,72,70,67,60,89,58,27,29.82,29.70,9,1,14,0.00
2013-8-9,101,85,70,71,61,47,92,52,17,29.89,29.78,5,0,11,0.00
2013-8-10,99,83,67,71,64,54,85,55,26,29.97,29.85,0,0,3,0.00
2013-8-11,97,82,69,72,68,63,88,65,37,30.00,29.87,4,0,9,0.00
2013-8-12,94,81,68,71,67,65,94,66,40,29.99,29.87,4,0,16,0.00
2013-8-13,99,85,70,70,66,61,87,57,29,29.96,29.81,4,0,13,0.00
2013-8-14,102,85,74,71,67,62,86,60,27,29.93,29.78,1,0,4,0.00
2013-8-15,96,78,68,76,69,66,93,75,40,29.93,29.83,10,0,15,0.62
2013-8-16,93,77,65,76,65,55,97,72,28,30.02,29.87,10,2,18,0.02
2013-8-17,92,78,63,71,61,52,96,62,27,30.00,29.87,10,2,16,0.00
2013-8-18,94,78,60,64,59,55,90,57,28,30.00,29.90,11,1,15,0.00
2013-8-19,93,78,61,66,60,57,90,59,33,30.00,29.86,7,1,25,0.00
2013-8-20,93,78,60,69,61,53,92,61,28,29.96,29.86,18,1,28,0.00
2013-8-21,96,81,70,72,67,62,88,67,33,30.00,29.88,7,0,94,0.00
2013-8-22,94,80,66,72,66,63,93,65,39,30.02,29.85,5,0,7,0.00
2013-8-23,96,81,67,72,65,61,91,62,34,29.96,29.82,3,0,39,0.00
2013-8-24,95,83,67,71,65,63,89,58,36,29.98,29.85,0,0,1,0.00
2013-8-25,93,81,67,73,66,63,91,63,39,30.01,29.92,0,0,1,0.00
2013-8-26,88,76,70,71,69,65,94,78,51,30.05,29.94,0,0,3,0.05
2013-8-27,88,77,70,73,69,65,96,79,48,30.04,29.95,0,0,3,0.63
2013-8-28,94,79,66,71,67,63,97,71,36,30.05,29.93,5,0,9,0.00
2013-8-29,97,82,67,74,65,60,96,63,30,30.04,29.89,0,0,2,0.00
2013-8-30,100,82,66,70,64,62,91,60,28,29.97,29.81,0,0,1,0.00
2013-8-31,100,83,66,71,65,62,92,59,31,29.88,29.74,0,0,0,0.00
2013-9-1,98,83,67,72,66,63,91,60,33,29.84,29.73,0,0,1,0.00
2013-9-2,94,81,71,74,68,63,86,66,43,29.91,29.77,0,0,1,0.03
2013-9-3,99,82,64,70,65,60,96,62,28,29.94,29.80,2,0,12,0.00
2013-9-4,96,78,68,71,67,62,95,72,38,30.00,29.86,1,0,1,0.45
2013-9-5,94,80,66,75,68,64,98,71,38,30.04,29.93,0,0,1,0.00
2013-9-6,94,81,66,73,67,64,96,67,39,30.02,29.88,0,0,1,0.00
2013-9-7,94,79,66,74,68,64,95,70,39,29.96,29.81,0,0,0,0.00
2013-9-8,92,78,71,72,69,66,95,76,46,29.91,29.81,0,0,0,0.00
2013-9-9,90,76,66,70,67,64,94,76,45,29.93,29.83,10,1,18,0.00
2013-9-10,86,74,69,74,70,68,96,88,60,30.00,29.90,9,2,16,0.76
2013-9-11,89,76,68,74,70,63,97,82,51,30.05,29.92,7,1,12,0.01
2013-9-12,92,77,65,73,65,59,98,72,34,30.02,29.86,9,1,12,0.00
2013-9-13,93,78,66,72,63,57,96,64,31,29.92,29.76,8,1,12,0.00
2013-9-14,92,77,62,70,63,56,96,65,34,29.88,29.77,12,2,14,0.00
2013-9-15,90,78,66,71,67,64,94,72,42,29.95,29.85,9,1,11,0.00
2013-9-16,86,74,67,72,69,65,95,84,58,30.00,29.91,5,0,6,0.08
2013-9-17,87,75,68,72,69,66,97,83,54,30.01,29.88,11,1,36,0.04
2013-9-18,88,76,67,73,69,65,97,80,49,29.96,29.82,13,2,13,0.01
2013-9-19,88,78,71,74,71,68,95,80,56,29.89,29.75,12,2,14,0.05
2013-9-20,80,72,68,73,70,66,97,93,79,29.83,29.73,14,4,22,3.34
2013-9-21,81,70,55,66,60,50,92,74,36,29.91,29.80,15,6,22,0.00
2013-9-22,85,64,49,56,50,45,95,67,25,29.89,29.75,8,2,12,0.00
2013-9-23,89,68,48,57,51,47,97,63,26,29.82,29.71,6,1,9,0.00
2013-9-24,95,73,54,63,57,52,94,62,28,29.89,29.78,7,1,12,0.00
2013-9-25,93,75,60,65,61,57,93,65,34,29.85,29.72,6,1,11,0.00
2013-9-26,89,73,56,71,61,55,96,69,35,29.84,29.75,7,0,13,0.00
2013-9-27,90,78,73,73,71,68,91,79,55,29.83,29.72,14,3,18,0.00
2013-9-28,86,77,68,76,72,66,93,85,65,29.93,29.79,14,3,18,0.16
2013-9-29,76,66,58,65,62,57,95,85,64,30.00,29.89,9,3,14,0.00
2013-9-30,89,69,50,67,57,49,98,72,32,29.94,29.76,8,1,11,0.01
2013-10-1,88,74,58,72,65,56,96,76,48,29.86,29.77,9,2,14,0.00
2013-10-2,88,78,69,72,69,64,95,76,50,29.88,29.78,10,3,15,0.00
2013-10-3,89,78,69,71,68,65,92,71,49,29.86,29.75,11,4,18,0.00
2013-10-4,89,78,71,70,68,66,89,73,50,29.84,29.75,14,5,18,0.00
2013-10-5,86,73,58,70,62,42,90,70,49,30.00,29.80,13,4,20,0.00
2013-10-6,76,60,47,50,44,35,95,62,22,30.12,29.98,15,3,20,0.68
2013-10-7,85,62,41,53,43,37,95,61,20,30.16,30.02,8,1,12,0.00
2013-10-8,83,62,43,54,47,42,97,65,27,30.07,29.94,6,1,41,0.00
2013-10-9,81,63,46,61,53,45,97,74,43,30.02,29.91,10,2,14,0.00
2013-10-10,82,71,62,65,62,58,94,75,52,29.98,29.82,14,4,18,0.00
2013-10-11,86,76,69,72,68,64,90,79,55,29.87,29.77,14,4,18,0.00
2013-10-12,86,78,73,73,71,68,95,82,62,29.94,29.82,6,2,10,0.00
2013-10-13,74,69,65,71,67,63,96,94,87,30.09,29.94,8,1,15,3.09
2013-10-14,82,73,69,70,68,65,97,85,60,30.03,29.85,10,3,14,0.04
2013-10-15,81,70,54,70,66,52,93,85,67,29.95,29.81,12,4,17,0.01
2013-10-16,58,54,51,55,52,49,95,93,89,30.07,29.90,10,3,16,1.37
2013-10-17,75,58,46,54,50,45,97,77,42,30.12,29.95,8,1,9,0.00
2013-10-18,72,62,52,64,58,50,96,87,73,29.98,29.83,9,1,209,0.00
2013-10-19,65,52,41,62,42,36,94,72,39,30.17,29.99,11,4,20,0.00
2013-10-20,72,54,38,52,45,37,97,75,46,30.09,29.90,12,2,55,0.00
2013-10-21,81,65,51,66,58,48,93,80,57,30.04,29.86,10,3,200,0.00
2013-10-22,72,59,44,52,43,33,87,62,26,30.14,30.04,14,3,17,0.00
2013-10-23,79,57,39,51,42,37,96,65,23,30.18,30.08,9,1,15,0.00
2013-10-24,79,58,40,48,44,38,95,66,31,30.22,30.12,10,1,36,0.00
2013-10-25,76,61,44,62,53,43,97,78,50,30.28,30.16,11,2,175,0.00
2013-10-26,76,68,63,65,62,61,93,82,65,30.17,30.01,9,4,128,0.00
2013-10-27,79,68,63,64,62,59,92,80,57,30.05,29.93,21,2,204,0.00
2013-10-28,80,71,64,66,64,62,96,81,62,30.01,29.90,14,5,19,0.00
2013-10-29,81,73,69,70,67,64,92,81,64,29.99,29.88,14,6,23,0.04
2013-10-30,78,73,69,71,69,66,96,88,77,29.94,29.75,9,3,20,0.07
2013-10-31,77,66,45,69,53,33,97,69,21,29.86,29.72,11,2,24,0.16
2013-11-1,81,59,40,57,40,32,95,58,19,30.10,29.84,14,2,17,0.00
2013-11-2,69,55,40,42,37,30,87,56,25,30.29,30.10,12,2,214,0.00
2013-11-3,68,52,33,50,38,32,97,64,34,30.21,30.00,12,2,15,0.00
2013-11-4,64,61,58,61,56,50,93,84,72,30.02,29.91,7,2,227,0.06
2013-11-5,72,67,63,67,64,61,96,91,76,29.96,29.86,10,2,141,0.10
2013-11-6,67,58,49,66,52,38,97,84,62,30.30,29.93,14,4,230,1.09
2013-11-7,61,49,36,45,37,29,91,66,36,30.46,30.30,12,2,230,0.00
2013-11-8,62,53,45,47,40,31,92,67,32,30.38,30.12,10,1,242,0.00
2013-11-9,63,58,53,56,52,43,92,83,70,30.16,30.08,6,2,232,0.00
2013-11-10,64,59,48,59,56,47,96,91,83,30.27,30.14,5,1,249,0.00
2013-11-11,74,57,46,59,51,45,98,83,54,30.26,30.13,5,0,236,0.00
2013-11-12,57,48,39,53,43,23,97,81,51,30.62,30.23,19,5,72,0.01
2013-11-13,56,38,28,32,26,21,92,63,32,30.65,30.41,10,1,116,0.00
2013-11-14,60,44,25,46,33,23,96,69,32,30.41,30.04,12,3,128,0.00
2013-11-15,77,62,51,57,53,47,94,74,47,30.05,29.83,8,2,242,0.00
2013-11-16,75,67,56,67,62,53,95,85,72,29.88,29.70,12,4,148,0.00
2013-11-17,87,71,52,69,59,48,95,71,29,29.91,29.74,9,2,204,0.00
2013-11-18,77,62,47,63,53,45,90,73,55,30.07,29.91,12,2,249,0.00
2013-11-19,72,60,46,56,49,42,93,69,41,30.09,29.94,8,2,249,0.00
2013-11-20,69,62,56,65,59,53,96,89,79,29.96,29.84,8,3,236,0.00
2013-11-21,74,68,61,69,66,59,97,92,81,30.01,29.88,9,2,196,0.01
2013-11-22,66,38,31,66,37,29,97,94,90,30.39,30.00,18,7,196,0.23
2013-11-23,36,34,32,35,32,30,96,93,91,30.50,30.38,16,6,24,0.00
2013-11-24,37,34,31,35,32,30,94,91,87,30.51,30.32,14,5,107,0.34
2013-11-25,39,35,31,36,34,30,97,93,88,30.35,30.09,12,4,229,0.06
2013-11-26,48,39,33,35,31,27,93,75,51,30.38,30.16,19,7,25,0.01
2013-11-27,48,37,26,28,23,14,90,62,27,30.48,30.35,13,3,18,0.00
2013-11-28,56,37,25,31,26,22,94,70,31,30.45,30.34,6,1,9,0.00
2013-11-29,56,42,24,48,38,23,97,86,73,30.52,30.36,8,1,242,0.00
2013-11-30,64,55,49,56,51,45,95,85,71,30.37,30.15,6,2,229,0.00
2013-12-1,66,59,54,59,56,52,93,88,74,30.16,29.94,10,2,242,0.00
2013-12-2,81,60,42,59,46,36,97,69,21,29.93,29.66,4,1,239,0.00
2013-12-3,85,57,39,55,40,33,97,64,16,29.71,29.59,8,1,199,0.00
2013-12-4,80,58,44,64,52,41,95,82,52,29.77,29.64,5,1,196,0.00
2013-12-5,61,40,28,60,35,24,97,84,70,30.07,29.76,14,6,85,0.00
2013-12-6,31,28,25,28,25,20,93,87,81,30.47,30.05,14,7,24,0.00
2013-12-7,28,24,22,22,20,17,85,81,77,30.50,30.29,12,5,236,0.00
2013-12-8,55,35,26,43,30,22,94,85,61,30.29,30.03,13,1,245,0.00
2013-12-9,41,36,26,40,34,25,96,95,91,30.39,30.06,15,3,233,0.03
2013-12-10,46,32,23,28,24,21,92,75,40,30.53,30.35,14,3,242,0.00
2013-12-11,60,39,22,33,27,20,95,67,34,30.56,30.35,7,1,144,0.00
2013-12-12,53,40,28,35,31,25,89,70,46,30.58,30.32,5,1,237,0.00
2013-12-13,49,45,41,47,40,33,96,85,67,30.31,29.90,8,2,249,0.04
2013-12-14,52,44,32,45,34,27,97,71,46,30.35,29.89,20,4,244,0.01
2013-12-15,63,41,23,33,27,20,93,64,26,30.41,30.27,7,1,229,0.00
2013-12-16,66,40,22,36,28,21,96,69,29,30.33,30.21,12,1,239,0.00
2013-12-17,71,45,27,41,32,25,96,68,26,30.34,30.23,4,0,200,0.00
2013-12-18,67,49,30,53,42,28,96,80,52,30.30,30.04,9,2,207,0.00
2013-12-19,68,60,50,58,55,48,97,85,68,30.03,29.77,13,5,204,0.00
2013-12-20,69,64,58,65,61,57,96,89,74,29.80,29.58,11,3,244,0.00
2013-12-21,68,53,40,65,43,33,96,73,29,29.81,29.52,11,2,222,0.38
2013-12-22,50,42,34,40,34,26,96,74,53,30.36,29.82,15,4,229,0.00
2013-12-23,58,38,25,28,24,17,90,63,25,30.54,30.35,4,1,249,0.00
2013-12-24,58,39,22,36,26,20,96,64,33,30.54,30.26,14,2,30,0.00
2013-12-25,62,47,35,50,41,32,97,81,62,30.39,30.22,9,2,233,0.00
2013-12-26,55,43,34,42,37,31,89,79,58,30.42,30.30,6,1,242,0.00
2013-12-27,54,46,38,45,42,36,95,85,66,30.42,30.31,5,1,178,0.12
2013-12-28,58,47,35,48,43,34,97,86,67,30.31,30.01,7,2,249,0.00
2013-12-29,62,48,29,51,43,27,91,84,65,30.26,29.95,15,4,224,0.00
2013-12-30,47,35,27,31,26,21,90,71,48,30.41,30.21,13,3,233,0.00
2013-12-31,58,40,30,34,31,27,90,72,38,30.46,30.25,5,1,229,0.00
2014-1-1,62,44,29,52,39,27,96,83,66,30.24,30.01,15,2,249,0.00
2014-1-2,48,37,23,46,27,21,97,67,40,30.46,30.12,16,6,207,0.00